createdAt,value
2023-03-28T00:00:46.062Z,98342.08
2023-03-28T00:03:25.358Z,98337.40
2023-03-28T00:06:03.445Z,98334.60
2023-03-28T00:08:39.628Z,98330.38
2023-03-28T00:11:20.277Z,98330.64
2023-03-28T00:13:58.169Z,98329.89
2023-03-28T00:16:33.895Z,98331.64
2023-03-28T00:19:08.508Z,98329.98
2023-03-28T00:21:42.946Z,98332.31
2023-03-28T00:24:17.525Z,98331.05
2023-03-28T00:26:54.836Z,98331.69
2023-03-28T00:29:33.856Z,98330.98
2023-03-28T00:32:07.962Z,98329.14
2023-03-28T00:34:41.830Z,98334.35
2023-03-28T00:37:18.561Z,98333.09
2023-03-28T00:39:51.774Z,98334.45
2023-03-28T00:42:27.611Z,98334.46
2023-03-28T00:44:59.943Z,98335.89
2023-03-28T00:47:42.027Z,98335.61
2023-03-28T00:50:20.242Z,98336.83
2023-03-28T00:52:56.749Z,98332.38
2023-03-28T00:55:33.055Z,98334.44
2023-03-28T00:58:08.570Z,98331.35
2023-03-28T01:00:41.608Z,98332.27
2023-03-28T01:03:13.845Z,98331.67
2023-03-28T01:05:48.499Z,98330.95
2023-03-28T01:08:24.524Z,98336.14
2023-03-28T01:10:59.084Z,98333.85
2023-03-28T01:13:36.116Z,98336.45
2023-03-28T01:16:12.986Z,98335.89
2023-03-28T01:18:51.556Z,98336.64
2023-03-28T01:21:55.000Z,98336.17
2023-03-28T01:25:10.973Z,98333.98
2023-03-28T01:27:47.392Z,98328.00
2023-03-28T01:30:38.930Z,98330.62
2023-03-28T01:33:42.010Z,98325.13
2023-03-28T01:36:59.495Z,98322.89
2023-03-28T01:39:41.123Z,98319.23
2023-03-28T01:42:19.702Z,98318.64
2023-03-28T01:44:56.477Z,98324.09
2023-03-28T01:47:32.924Z,98319.12
2023-03-28T01:50:12.753Z,98318.27
2023-03-28T01:52:51.344Z,98316.00
2023-03-28T01:55:27.224Z,98314.06
2023-03-28T01:58:06.445Z,98313.54
2023-03-28T02:00:46.749Z,98315.36
2023-03-28T02:03:25.222Z,98313.16
2023-03-28T02:05:59.739Z,98314.56
2023-03-28T02:08:36.747Z,98318.17
2023-03-28T02:11:11.663Z,98312.97
2023-03-28T02:13:48.152Z,98310.71
2023-03-28T02:16:23.360Z,98311.71
2023-03-28T02:18:58.955Z,98310.59
2023-03-28T02:21:37.693Z,98304.64
2023-03-28T02:24:12.535Z,98303.23
2023-03-28T02:26:47.619Z,98300.87
2023-03-28T02:29:21.538Z,98297.55
2023-03-28T02:31:53.407Z,98299.10
2023-03-28T02:34:27.474Z,98294.79
2023-03-28T02:37:08.205Z,98296.00
2023-03-28T02:39:52.602Z,98291.70
2023-03-28T02:42:51.386Z,98290.67
2023-03-28T02:45:39.412Z,98287.78
2023-03-28T02:48:18.130Z,98292.77
2023-03-28T02:50:56.090Z,98289.13
2023-03-28T02:53:34.145Z,98287.78
2023-03-28T02:56:11.155Z,98289.56
2023-03-28T02:58:49.834Z,98290.33
2023-03-28T03:01:30.676Z,98287.31
2023-03-28T03:04:05.990Z,98285.82
2023-03-28T03:06:38.302Z,98285.92
2023-03-28T03:09:10.298Z,98288.95
2023-03-28T03:11:42.092Z,98292.23
2023-03-28T03:14:15.216Z,98291.80
2023-03-28T03:16:49.297Z,98290.14
2023-03-28T03:19:23.211Z,98289.02
2023-03-28T03:21:58.837Z,98287.23
2023-03-28T03:24:32.331Z,98285.96
2023-03-28T03:27:06.644Z,98281.34
2023-03-28T03:29:39.787Z,98278.05
2023-03-28T03:32:12.872Z,98279.02
2023-03-28T03:34:45.649Z,98279.00
2023-03-28T03:37:18.997Z,98280.90
2023-03-28T03:39:51.833Z,98277.80
2023-03-28T03:42:26.207Z,98281.97
2023-03-28T03:44:59.639Z,98273.12
2023-03-28T03:47:33.320Z,98272.09
2023-03-28T03:50:05.918Z,98271.52
2023-03-28T03:52:37.988Z,98272.89
2023-03-28T03:55:11.801Z,98266.63
2023-03-28T03:57:43.593Z,98262.98
2023-03-28T04:00:18.921Z,98261.74
2023-03-28T04:02:53.775Z,98267.42
2023-03-28T04:05:27.185Z,98264.55
2023-03-28T04:08:02.682Z,98265.95
2023-03-28T04:10:34.502Z,98266.56
2023-03-28T04:13:07.837Z,98273.23
2023-03-28T04:15:41.920Z,98272.05
2023-03-28T04:18:15.640Z,98274.61
2023-03-28T04:20:49.600Z,98273.55
2023-03-28T04:23:26.832Z,98278.33
2023-03-28T04:26:03.464Z,98279.23
2023-03-28T04:28:35.416Z,98276.95
2023-03-28T04:31:13.009Z,98270.52
2023-03-28T04:33:47.539Z,98265.63
2023-03-28T04:36:25.603Z,98261.16
2023-03-28T04:39:04.293Z,98261.96
2023-03-28T04:41:37.784Z,98264.73
2023-03-28T04:44:13.329Z,98268.98
2023-03-28T04:46:46.587Z,98270.30
2023-03-28T04:49:19.761Z,98271.70
2023-03-28T04:51:55.557Z,98277.48
2023-03-28T04:54:28.240Z,98278.30
2023-03-28T04:57:04.984Z,98278.67
2023-03-28T04:59:40.491Z,98280.77
2023-03-28T05:02:13.775Z,98282.23
2023-03-28T05:04:46.391Z,98282.70
2023-03-28T05:07:22.553Z,98286.21
2023-03-28T05:09:58.890Z,98285.37
2023-03-28T05:12:37.073Z,98291.48
2023-03-28T05:15:21.434Z,98293.60
2023-03-28T05:17:58.760Z,98294.91
2023-03-28T05:20:39.244Z,98290.41
2023-03-28T05:23:17.287Z,98298.93
2023-03-28T05:26:04.963Z,98296.25
2023-03-28T05:28:37.158Z,98295.38
2023-03-28T05:31:12.930Z,98293.33
2023-03-28T05:33:47.694Z,98291.95
2023-03-28T05:36:23.601Z,98295.93
2023-03-28T05:38:58.061Z,98288.42
2023-03-28T05:41:33.662Z,98295.05
2023-03-28T05:44:05.607Z,98295.11
2023-03-28T05:46:41.310Z,98291.73
2023-03-28T05:49:13.358Z,98295.74
2023-03-28T05:51:48.943Z,98294.98
2023-03-28T05:54:25.965Z,98297.30
2023-03-28T05:56:59.582Z,98295.63
2023-03-28T05:59:32.590Z,98294.71
2023-03-28T06:02:09.483Z,98298.58
2023-03-28T06:04:42.698Z,98299.95
2023-03-28T06:07:15.051Z,98308.59
2023-03-28T06:09:49.558Z,98307.09
2023-03-28T06:12:23.470Z,98307.23
2023-03-28T06:14:57.238Z,98307.03
2023-03-28T06:17:31.362Z,98308.76
2023-03-28T06:20:07.354Z,98312.95
2023-03-28T06:22:39.419Z,98320.42
2023-03-28T06:25:13.525Z,98331.55
2023-03-28T06:27:46.873Z,98338.45
2023-03-28T06:30:21.033Z,98346.69
2023-03-28T06:32:53.697Z,98349.59
2023-03-28T06:35:26.267Z,98350.30
2023-03-28T06:38:00.888Z,98352.84
2023-03-28T06:40:36.888Z,98354.63
2023-03-28T06:43:10.152Z,98355.71
2023-03-28T06:45:43.195Z,98362.32
2023-03-28T06:48:16.647Z,98357.46
2023-03-28T06:50:51.569Z,98362.76
2023-03-28T06:53:23.801Z,98363.87
2023-03-28T06:55:56.597Z,98369.69
2023-03-28T06:58:29.213Z,98367.08
2023-03-28T07:01:05.802Z,98363.27
2023-03-28T07:03:37.745Z,98373.95
2023-03-28T07:06:11.536Z,98374.23
2023-03-28T07:08:45.682Z,98379.35
2023-03-28T07:11:18.992Z,98383.98
2023-03-28T07:13:51.057Z,98389.30
2023-03-28T07:16:24.810Z,98390.16
2023-03-28T07:18:58.829Z,98396.80
2023-03-28T07:21:32.161Z,98399.78
2023-03-28T07:24:04.137Z,98403.06
2023-03-28T07:26:37.704Z,98411.95
2023-03-28T07:29:10.013Z,98409.21
2023-03-28T07:31:42.718Z,98421.45
2023-03-28T07:34:18.741Z,98419.02
2023-03-28T07:36:54.574Z,98421.88
2023-03-28T07:39:36.091Z,98431.24
2023-03-28T07:42:20.322Z,98440.78
2023-03-28T07:44:52.241Z,98437.35
2023-03-28T07:47:24.382Z,98443.98
2023-03-28T07:49:57.530Z,98442.29
2023-03-28T07:52:29.421Z,98442.89
2023-03-28T07:55:04.616Z,98445.95
2023-03-28T07:57:38.745Z,98454.52
2023-03-28T08:00:14.100Z,98454.27
2023-03-28T08:02:47.981Z,98466.58
2023-03-28T08:05:24.230Z,98478.92
2023-03-28T08:07:57.263Z,98496.33
2023-03-28T08:10:29.200Z,98496.83
2023-03-28T08:13:02.690Z,98490.59
2023-03-28T08:15:37.350Z,98498.14
2023-03-28T08:18:12.553Z,98494.38
2023-03-28T08:20:45.296Z,98488.23
2023-03-28T08:23:18.634Z,98488.15
2023-03-28T08:25:52.915Z,98491.27
2023-03-28T08:28:24.811Z,98490.81
2023-03-28T08:30:57.139Z,98489.27
2023-03-28T08:33:32.906Z,98508.23
2023-03-28T08:36:05.283Z,98513.46
2023-03-28T08:38:39.553Z,98521.84
2023-03-28T08:41:20.734Z,98520.73
2023-03-28T08:44:03.920Z,98514.52
2023-03-28T08:46:37.075Z,98521.02
2023-03-28T08:49:15.249Z,98527.95
2023-03-28T08:51:51.018Z,98534.12
2023-03-28T08:54:28.220Z,98541.24
2023-03-28T08:57:03.006Z,98547.98
2023-03-28T08:59:47.564Z,98544.06
2023-03-28T09:02:23.858Z,98553.93
2023-03-28T09:05:11.904Z,98569.45
2023-03-28T09:07:56.432Z,98575.45
2023-03-28T09:10:31.971Z,98576.95
2023-03-28T09:13:13.193Z,98578.68
2023-03-28T09:15:55.205Z,98576.87
2023-03-28T09:19:00.730Z,98580.31
2023-03-28T09:21:41.140Z,98576.55
2023-03-28T09:24:22.004Z,98575.11
2023-03-28T09:27:02.479Z,98569.15
2023-03-28T09:29:38.677Z,98576.89
2023-03-28T09:32:17.415Z,98589.04
2023-03-28T09:34:52.841Z,98598.98
2023-03-28T09:37:41.096Z,98607.75
2023-03-28T09:40:20.944Z,98609.16
2023-03-28T09:43:09.197Z,98611.53
2023-03-28T09:45:53.773Z,98617.09
2023-03-28T09:48:30.609Z,98620.36
2023-03-28T09:51:06.447Z,98611.67
2023-03-28T09:53:42.505Z,98606.36
2023-03-28T09:56:22.816Z,98600.80
2023-03-28T09:58:57.568Z,98598.52
2023-03-28T10:01:37.714Z,98605.59
2023-03-28T10:04:15.869Z,98605.45
2023-03-28T10:06:50.318Z,98613.76
2023-03-28T10:09:26.252Z,98616.60
2023-03-28T10:12:03.619Z,98623.83
2023-03-28T10:14:37.925Z,98619.94
2023-03-28T10:17:16.198Z,98629.71
2023-03-28T10:19:52.313Z,98622.38
2023-03-28T10:22:27.939Z,98628.53
2023-03-28T10:25:00.610Z,98625.38
2023-03-28T10:27:35.261Z,98630.58
2023-03-28T10:30:22.567Z,98633.70
2023-03-28T10:33:25.401Z,98639.77
2023-03-28T10:36:03.998Z,98635.90
2023-03-28T10:38:39.026Z,98638.05
2023-03-28T10:41:21.487Z,98641.91
2023-03-28T10:43:58.067Z,98642.01
2023-03-28T10:46:36.169Z,98650.90
2023-03-28T10:49:15.936Z,98649.30
2023-03-28T10:51:52.414Z,98657.73
2023-03-28T10:54:38.360Z,98657.75
2023-03-28T10:57:15.512Z,98647.23
2023-03-28T10:59:52.870Z,98644.13
2023-03-28T11:02:51.052Z,98643.22
2023-03-28T11:05:39.468Z,98647.22
2023-03-28T11:08:31.500Z,98652.97
2023-03-28T11:11:08.496Z,98660.22
2023-03-28T11:13:46.851Z,98665.33
2023-03-28T11:16:25.504Z,98671.42
2023-03-28T11:19:05.785Z,98673.39
2023-03-28T11:21:44.996Z,98669.73
2023-03-28T11:24:26.129Z,98669.58
2023-03-28T11:27:15.666Z,98666.09
2023-03-28T11:29:51.909Z,98667.23
2023-03-28T11:32:27.752Z,98668.91
2023-03-28T11:35:06.575Z,98661.46
2023-03-28T11:37:41.542Z,98663.54
2023-03-28T11:40:25.274Z,98660.28
2023-03-28T11:43:00.271Z,98655.03
2023-03-28T11:45:49.523Z,98656.92
2023-03-28T11:48:29.785Z,98645.14
2023-03-28T11:51:05.806Z,98647.39
2023-03-28T11:53:40.954Z,98650.41
2023-03-28T11:56:17.164Z,98654.80
2023-03-28T11:58:51.542Z,98655.48
2023-03-28T12:01:28.356Z,98656.20
2023-03-28T12:04:06.467Z,98664.88
2023-03-28T12:06:55.842Z,98671.96
2023-03-28T12:09:42.793Z,98686.28
2023-03-28T12:12:17.683Z,98708.42
2023-03-28T12:14:59.194Z,98733.88
2023-03-28T12:17:35.652Z,98744.61
2023-03-28T12:20:14.397Z,98736.23
2023-03-28T12:22:54.142Z,98735.65
2023-03-28T12:25:31.202Z,98734.42
2023-03-28T12:28:10.269Z,98735.18
2023-03-28T12:30:48.987Z,98734.80
2023-03-28T12:33:28.077Z,98729.94
2023-03-28T12:36:03.574Z,98728.05
2023-03-28T12:38:40.982Z,98724.73
2023-03-28T12:41:16.004Z,98724.10
2023-03-28T12:43:53.491Z,98722.92
2023-03-28T12:46:28.958Z,98736.25
2023-03-28T12:49:11.595Z,98758.64
2023-03-28T12:51:48.190Z,98773.55
2023-03-28T12:54:31.080Z,98785.14
2023-03-28T12:57:05.476Z,98800.71
2023-03-28T12:59:58.120Z,98805.06
2023-03-28T13:02:36.471Z,98806.05
2023-03-28T13:05:18.835Z,98802.03
2023-03-28T13:08:04.282Z,98800.23
2023-03-28T13:10:42.821Z,98797.07
2023-03-28T13:13:22.868Z,98791.27
2023-03-28T13:16:08.066Z,98787.22
2023-03-28T13:18:49.160Z,98795.64
2023-03-28T13:21:45.105Z,98793.28
2023-03-28T13:24:32.299Z,98795.83
2023-03-28T13:27:08.001Z,98799.85
2023-03-28T13:29:51.381Z,98789.25
2023-03-28T13:32:25.873Z,98789.52
2023-03-28T13:35:00.269Z,98799.59
2023-03-28T13:37:52.729Z,98795.41
2023-03-28T13:40:51.560Z,98795.41
2023-03-28T13:43:29.884Z,98793.11
2023-03-28T13:46:05.321Z,98793.12
2023-03-28T13:48:43.482Z,98790.75
2023-03-28T13:51:21.595Z,98797.39
2023-03-28T13:53:55.060Z,98792.73
2023-03-28T13:56:29.298Z,98786.16
2023-03-28T13:59:03.489Z,98783.47
2023-03-28T14:01:47.068Z,98778.33
2023-03-28T14:04:24.844Z,98790.38
2023-03-28T14:06:59.860Z,98793.89
2023-03-28T14:09:36.758Z,98804.18
2023-03-28T14:12:14.091Z,98810.77
2023-03-28T14:14:49.436Z,98811.77
2023-03-28T14:17:26.062Z,98817.69
2023-03-28T14:20:03.142Z,98815.68
2023-03-28T14:22:59.096Z,98820.35
2023-03-28T14:25:33.649Z,98822.64
2023-03-28T14:28:10.719Z,98834.90
2023-03-28T14:30:45.027Z,98833.41
2023-03-28T14:33:21.924Z,98837.17
2023-03-28T14:36:01.798Z,98865.27
2023-03-28T14:38:38.621Z,98874.08
2023-03-28T14:41:19.263Z,98890.27
2023-03-28T14:43:56.045Z,98867.67
2023-03-28T14:46:30.170Z,98857.82
2023-03-28T14:49:07.314Z,98859.02
2023-03-28T14:51:46.696Z,98850.52
2023-03-28T14:54:27.454Z,98848.84
2023-03-28T14:57:05.000Z,98843.15
2023-03-28T14:59:41.357Z,98838.39
2023-03-28T15:02:22.435Z,98841.14
2023-03-28T15:04:57.520Z,98849.46
2023-03-28T15:07:35.423Z,98851.04
2023-03-28T15:10:12.016Z,98849.75
2023-03-28T15:12:49.323Z,98862.99
2023-03-28T15:15:24.035Z,98869.34
2023-03-28T15:18:03.386Z,98893.58
2023-03-28T15:20:39.102Z,98895.34
2023-03-28T15:23:18.900Z,98892.74
2023-03-28T15:25:54.978Z,98895.28
2023-03-28T15:28:31.756Z,98867.20
2023-03-28T15:31:08.364Z,98877.48
2023-03-28T15:33:41.241Z,98870.67
2023-03-28T15:36:19.066Z,98878.01
2023-03-28T15:39:04.241Z,98880.30
2023-03-28T15:41:48.424Z,98884.27
2023-03-28T15:44:29.252Z,98881.08
2023-03-28T15:47:04.577Z,98874.80
2023-03-28T15:49:39.429Z,98880.92
2023-03-28T15:52:19.144Z,98881.94
2023-03-28T15:54:53.228Z,98888.83
2023-03-28T15:57:30.226Z,98889.70
2023-03-28T16:00:06.936Z,98894.27
2023-03-28T16:02:42.440Z,98897.69
2023-03-28T16:05:35.652Z,98899.27
2023-03-28T16:08:23.434Z,98900.54
2023-03-28T16:10:57.792Z,98912.27
2023-03-28T16:13:33.647Z,98914.79
2023-03-28T16:16:09.094Z,98915.71
2023-03-28T16:18:42.990Z,98927.76
2023-03-28T16:21:16.523Z,98932.76
2023-03-28T16:23:50.416Z,98947.38
2023-03-28T16:26:25.121Z,98944.84
2023-03-28T16:29:01.071Z,98949.72
2023-03-28T16:31:36.653Z,98951.02
2023-03-28T16:34:10.360Z,98958.25
2023-03-28T16:36:43.337Z,98959.52
2023-03-28T16:39:16.196Z,98961.09
2023-03-28T16:41:49.937Z,98966.98
2023-03-28T16:44:23.275Z,98971.98
2023-03-28T16:46:58.023Z,98982.70
2023-03-28T16:49:32.264Z,98993.69
2023-03-28T16:52:05.333Z,99002.45
2023-03-28T16:54:38.823Z,99011.48
2023-03-28T16:57:12.842Z,99006.64
2023-03-28T16:59:48.499Z,99013.36
2023-03-28T17:02:21.211Z,99016.23
2023-03-28T17:04:55.888Z,99020.48
2023-03-28T17:07:30.411Z,99022.81
2023-03-28T17:10:05.474Z,99027.30
2023-03-28T17:12:43.346Z,99028.55
2023-03-28T17:15:17.919Z,99037.30
2023-03-28T17:17:54.880Z,99043.27
2023-03-28T17:20:28.082Z,99041.15
2023-03-28T17:23:02.595Z,99046.42
2023-03-28T17:25:48.122Z,99051.33
2023-03-28T17:28:27.980Z,99056.89
2023-03-28T17:31:08.066Z,99055.81
2023-03-28T17:33:43.507Z,99064.51
2023-03-28T17:36:22.421Z,99060.67
2023-03-28T17:39:02.099Z,99066.20
2023-03-28T17:41:42.003Z,99070.39
2023-03-28T17:44:15.725Z,99077.66
2023-03-28T17:46:54.540Z,99078.83
2023-03-28T17:49:28.281Z,99088.45
2023-03-28T17:52:03.365Z,99096.23
2023-03-28T17:54:37.296Z,99102.44
2023-03-28T17:57:11.062Z,99106.39
2023-03-28T17:59:46.345Z,99110.48
2023-03-28T18:02:20.397Z,99115.60
2023-03-28T18:04:53.831Z,99116.41
2023-03-28T18:07:27.188Z,99120.61
2023-03-28T18:10:01.533Z,99123.18
2023-03-28T18:12:35.566Z,99126.80
2023-03-28T18:15:10.873Z,99127.56
2023-03-28T18:17:44.669Z,99131.65
2023-03-28T18:20:17.584Z,99137.89
2023-03-28T18:22:51.492Z,99136.05
2023-03-28T18:25:24.013Z,99132.40
2023-03-28T18:27:57.823Z,99137.42
2023-03-28T18:30:31.901Z,99139.15
2023-03-28T18:33:06.355Z,99137.35
2023-03-28T18:35:39.538Z,99138.21
2023-03-28T18:38:18.351Z,99141.63
2023-03-28T18:40:55.184Z,99147.14
2023-03-28T18:43:30.299Z,99149.95
2023-03-28T18:46:09.404Z,99152.27
2023-03-28T18:48:42.196Z,99158.39
2023-03-28T18:51:16.927Z,99161.44
2023-03-28T18:53:51.050Z,99163.98
2023-03-28T18:56:26.027Z,99167.95
2023-03-28T18:59:00.056Z,99168.58
2023-03-28T19:01:35.971Z,99170.52
2023-03-28T19:04:09.300Z,99173.80
2023-03-28T19:06:42.439Z,99177.00
2023-03-28T19:09:18.342Z,99179.59
2023-03-28T19:11:55.192Z,99178.89
2023-03-28T19:14:29.802Z,99181.25
2023-03-28T19:17:02.892Z,99184.80
2023-03-28T19:19:37.603Z,99182.69
2023-03-28T19:22:11.853Z,99188.38
2023-03-28T19:24:46.427Z,99191.20
2023-03-28T19:27:21.352Z,99190.25
2023-03-28T19:29:54.990Z,99189.99
2023-03-28T19:32:28.137Z,99191.73
2023-03-28T19:35:08.655Z,99190.27
2023-03-28T19:37:42.028Z,99192.66
2023-03-28T19:40:17.564Z,99191.71
2023-03-28T19:42:49.805Z,99196.23
2023-03-28T19:45:23.124Z,99198.80
2023-03-28T19:48:00.217Z,99197.09
2023-03-28T19:50:38.651Z,99197.19
2023-03-28T19:53:13.531Z,99197.77
2023-03-28T19:55:47.510Z,99196.28
2023-03-28T19:58:19.830Z,99196.80
2023-03-28T20:00:54.280Z,99197.34
2023-03-28T20:03:28.343Z,99195.73
2023-03-28T20:06:07.803Z,99195.47
2023-03-28T20:08:42.863Z,99197.98
2023-03-28T20:11:16.950Z,99202.88
2023-03-28T20:13:51.896Z,99201.19
2023-03-28T20:16:26.236Z,99200.52
2023-03-28T20:19:01.081Z,99199.58
2023-03-28T20:21:35.262Z,99203.58
2023-03-28T20:24:10.981Z,99202.66
2023-03-28T20:26:43.474Z,99205.78
2023-03-28T20:29:15.313Z,99205.55
2023-03-28T20:31:48.685Z,99202.35
2023-03-28T20:34:26.358Z,99206.52
2023-03-28T20:37:01.304Z,99202.05
2023-03-28T20:39:37.061Z,99206.69
2023-03-28T20:42:12.918Z,99207.05
2023-03-28T20:44:45.050Z,99208.37
2023-03-28T20:47:25.419Z,99210.23
2023-03-28T20:50:07.147Z,99214.56
2023-03-28T20:52:42.618Z,99215.92
2023-03-28T20:55:19.814Z,99217.67
2023-03-28T20:57:58.660Z,99218.73
2023-03-28T21:00:37.772Z,99216.10
2023-03-28T21:03:12.310Z,99214.69
2023-03-28T21:05:46.848Z,99223.57
2023-03-28T21:08:21.541Z,99229.05
2023-03-28T21:10:58.669Z,99234.02
2023-03-28T21:13:34.042Z,99238.25
2023-03-28T21:16:08.696Z,99237.44
2023-03-28T21:18:42.725Z,99239.89
2023-03-28T21:21:16.939Z,99243.29
2023-03-28T21:23:49.668Z,99241.58
2023-03-28T21:26:23.331Z,99243.84
2023-03-28T21:28:56.955Z,99244.94
2023-03-28T21:31:30.913Z,99239.79
2023-03-28T21:34:05.179Z,99243.66
2023-03-28T21:36:37.234Z,99243.71
2023-03-28T21:39:11.040Z,99246.33
2023-03-28T21:41:43.731Z,99246.55
2023-03-28T21:44:19.007Z,99245.23
2023-03-28T21:46:55.356Z,99242.73
2023-03-28T21:49:30.629Z,99245.27
2023-03-28T21:52:03.197Z,99242.89
2023-03-28T21:54:38.855Z,99249.86
2023-03-28T21:57:13.751Z,99245.70
2023-03-28T21:59:47.949Z,99247.80
2023-03-28T22:02:25.134Z,99241.95
2023-03-28T22:05:01.240Z,99241.58
2023-03-28T22:07:34.200Z,99242.60
2023-03-28T22:10:08.383Z,99243.57
2023-03-28T22:12:44.897Z,99243.38
2023-03-28T22:15:19.691Z,99245.75
2023-03-28T22:17:58.518Z,99247.59
2023-03-28T22:20:31.761Z,99248.67
2023-03-28T22:23:04.469Z,99248.43
2023-03-28T22:25:39.940Z,99248.55
2023-03-28T22:28:14.045Z,99249.13
2023-03-28T22:33:43.319Z,99253.20
2023-03-28T22:36:16.450Z,99256.14
2023-03-28T22:38:49.876Z,99258.85
2023-03-28T22:41:23.888Z,99255.91
2023-03-28T22:43:58.683Z,99257.19
2023-03-28T22:46:32.222Z,99255.05
2023-03-28T22:49:05.512Z,99262.33
2023-03-28T22:51:46.351Z,99264.05
2023-03-28T22:54:22.909Z,99265.77
2023-03-28T22:57:00.533Z,99269.41
2023-03-28T22:59:33.884Z,99272.70
2023-03-28T23:02:08.027Z,99266.98
2023-03-28T23:04:40.355Z,99269.73
2023-03-28T23:07:13.619Z,99267.02
2023-03-28T23:09:46.389Z,99269.21
2023-03-28T23:12:18.967Z,99271.41
2023-03-28T23:14:53.698Z,99273.16
2023-03-28T23:17:31.438Z,99275.05
2023-03-28T23:20:07.245Z,99278.17
2023-03-28T23:22:41.242Z,99273.77
2023-03-28T23:25:14.910Z,99272.50
2023-03-28T23:27:48.210Z,99272.91
2023-03-28T23:30:21.229Z,99272.17
2023-03-28T23:32:54.147Z,99270.95
2023-03-28T23:35:27.335Z,99271.18
2023-03-28T23:38:00.105Z,99270.85
2023-03-28T23:40:34.444Z,99266.95
2023-03-28T23:43:09.894Z,99268.46
2023-03-28T23:45:43.845Z,99265.58
2023-03-28T23:48:16.873Z,99259.84
2023-03-28T23:50:48.712Z,99260.96
2023-03-28T23:53:22.836Z,99260.65
2023-03-28T23:55:55.103Z,99263.27
2023-03-28T23:58:27.004Z,99262.30
